sensor_id;sensor_type;location;lat;lon;timestamp;P1;durP1;ratioP1;P2;durP2;ratioP2
73150;SDS011;61354;50.758;6.106;2023-05-18T00:01:28;7.88;;;2.67;;
73150;SDS011;61354;50.758;6.106;2023-05-18T00:03:55;5.65;;;2.30;;
73150;SDS011;61354;50.758;6.106;2023-05-18T00:06:21;5.22;;;2.30;;
73150;SDS011;61354;50.758;6.106;2023-05-18T00:08:49;8.02;;;2.58;;
73150;SDS011;61354;50.758;6.106;2023-05-18T00:11:16;6.95;;;2.38;;
73150;SDS011;61354;50.758;6.106;2023-05-18T00:13:42;6.47;;;3.10;;
73150;SDS011;61354;50.758;6.106;2023-05-18T00:16:08;4.53;;;2.20;;
73150;SDS011;61354;50.758;6.106;2023-05-18T00:18:36;6.50;;;2.60;;
73150;SDS011;61354;50.758;6.106;2023-05-18T00:21:01;5.88;;;2.10;;
73150;SDS011;61354;50.758;6.106;2023-05-18T00:23:28;6.88;;;2.60;;
73150;SDS011;61354;50.758;6.106;2023-05-18T00:25:58;8.00;;;2.55;;
73150;SDS011;61354;50.758;6.106;2023-05-18T00:28:24;7.57;;;2.70;;
73150;SDS011;61354;50.758;6.106;2023-05-18T00:30:50;6.53;;;2.63;;
73150;SDS011;61354;50.758;6.106;2023-05-18T00:33:17;4.57;;;2.30;;
73150;SDS011;61354;50.758;6.106;2023-05-18T00:35:42;8.45;;;2.38;;
73150;SDS011;61354;50.758;6.106;2023-05-18T00:38:08;6.95;;;2.75;;
73150;SDS011;61354;50.758;6.106;2023-05-18T00:40:36;8.20;;;3.17;;
73150;SDS011;61354;50.758;6.106;2023-05-18T00:43:03;5.30;;;2.28;;
73150;SDS011;61354;50.758;6.106;2023-05-18T00:45:28;4.28;;;2.17;;
73150;SDS011;61354;50.758;6.106;2023-05-18T00:47:54;3.47;;;2.03;;
73150;SDS011;61354;50.758;6.106;2023-05-18T00:50:20;5.50;;;2.28;;
73150;SDS011;61354;50.758;6.106;2023-05-18T00:52:45;5.32;;;2.35;;
73150;SDS011;61354;50.758;6.106;2023-05-18T00:55:11;3.22;;;2.20;;
73150;SDS011;61354;50.758;6.106;2023-05-18T00:57:41;6.03;;;2.03;;
73150;SDS011;61354;50.758;6.106;2023-05-18T01:00:11;5.47;;;2.17;;
73150;SDS011;61354;50.758;6.106;2023-05-18T01:02:39;6.57;;;2.33;;
73150;SDS011;61354;50.758;6.106;2023-05-18T01:05:07;9.43;;;2.30;;
73150;SDS011;61354;50.758;6.106;2023-05-18T01:10:07;4.78;;;2.05;;
73150;SDS011;61354;50.758;6.106;2023-05-18T01:12:39;6.10;;;2.22;;
73150;SDS011;61354;50.758;6.106;2023-05-18T01:15:13;6.25;;;2.22;;
73150;SDS011;61354;50.758;6.106;2023-05-18T01:23:44;7.90;;;2.35;;
73150;SDS011;61354;50.758;6.106;2023-05-18T01:26:24;5.18;;;2.38;;
73150;SDS011;61354;50.758;6.106;2023-05-18T01:28:57;6.72;;;2.10;;
73150;SDS011;61354;50.758;6.106;2023-05-18T01:31:24;6.43;;;2.47;;
73150;SDS011;61354;50.758;6.106;2023-05-18T01:33:51;4.90;;;2.08;;
73150;SDS011;61354;50.758;6.106;2023-05-18T01:36:16;7.18;;;2.38;;
73150;SDS011;61354;50.758;6.106;2023-05-18T01:38:42;6.78;;;2.10;;
73150;SDS011;61354;50.758;6.106;2023-05-18T01:49:15;6.10;;;2.10;;
73150;SDS011;61354;50.758;6.106;2023-05-18T01:51:45;5.70;;;2.25;;
73150;SDS011;61354;50.758;6.106;2023-05-18T01:54:14;4.78;;;2.20;;
73150;SDS011;61354;50.758;6.106;2023-05-18T01:56:41;4.60;;;1.90;;
73150;SDS011;61354;50.758;6.106;2023-05-18T01:59:09;6.78;;;2.50;;
73150;SDS011;61354;50.758;6.106;2023-05-18T02:01:35;5.40;;;2.28;;
73150;SDS011;61354;50.758;6.106;2023-05-18T02:04:01;7.38;;;2.42;;
73150;SDS011;61354;50.758;6.106;2023-05-18T02:06:27;4.88;;;2.40;;
73150;SDS011;61354;50.758;6.106;2023-05-18T02:08:52;6.95;;;2.00;;
73150;SDS011;61354;50.758;6.106;2023-05-18T02:11:18;4.72;;;2.30;;
73150;SDS011;61354;50.758;6.106;2023-05-18T02:13:43;6.63;;;3.15;;
73150;SDS011;61354;50.758;6.106;2023-05-18T02:16:09;5.10;;;2.22;;
73150;SDS011;61354;50.758;6.106;2023-05-18T02:18:35;6.90;;;2.42;;
73150;SDS011;61354;50.758;6.106;2023-05-18T02:21:02;7.20;;;2.63;;
73150;SDS011;61354;50.758;6.106;2023-05-18T02:23:28;6.47;;;2.28;;
73150;SDS011;61354;50.758;6.106;2023-05-18T02:25:53;7.05;;;2.50;;
73150;SDS011;61354;50.758;6.106;2023-05-18T02:28:20;6.60;;;2.55;;
73150;SDS011;61354;50.758;6.106;2023-05-18T02:30:45;5.68;;;2.28;;
73150;SDS011;61354;50.758;6.106;2023-05-18T02:33:11;8.50;;;2.30;;
73150;SDS011;61354;50.758;6.106;2023-05-18T02:35:37;5.35;;;2.38;;
73150;SDS011;61354;50.758;6.106;2023-05-18T02:38:02;4.32;;;2.38;;
73150;SDS011;61354;50.758;6.106;2023-05-18T02:40:28;7.28;;;3.20;;
73150;SDS011;61354;50.758;6.106;2023-05-18T02:42:54;8.45;;;2.70;;
73150;SDS011;61354;50.758;6.106;2023-05-18T02:45:20;6.88;;;2.28;;
73150;SDS011;61354;50.758;6.106;2023-05-18T02:47:45;7.40;;;2.70;;
73150;SDS011;61354;50.758;6.106;2023-05-18T02:50:11;6.40;;;2.33;;
73150;SDS011;61354;50.758;6.106;2023-05-18T02:52:37;6.10;;;2.25;;
73150;SDS011;61354;50.758;6.106;2023-05-18T02:55:04;6.03;;;2.55;;
73150;SDS011;61354;50.758;6.106;2023-05-18T02:57:30;7.93;;;3.08;;
73150;SDS011;61354;50.758;6.106;2023-05-18T02:59:57;5.50;;;2.17;;
73150;SDS011;61354;50.758;6.106;2023-05-18T03:02:22;6.93;;;3.15;;
73150;SDS011;61354;50.758;6.106;2023-05-18T03:04:49;4.22;;;2.42;;
73150;SDS011;61354;50.758;6.106;2023-05-18T03:07:21;5.85;;;2.50;;
73150;SDS011;61354;50.758;6.106;2023-05-18T03:09:47;7.20;;;3.00;;
73150;SDS011;61354;50.758;6.106;2023-05-18T03:12:13;7.95;;;2.90;;
73150;SDS011;61354;50.758;6.106;2023-05-18T03:14:38;6.32;;;2.67;;
73150;SDS011;61354;50.758;6.106;2023-05-18T03:17:04;6.78;;;2.67;;
73150;SDS011;61354;50.758;6.106;2023-05-18T03:19:30;6.45;;;2.80;;
73150;SDS011;61354;50.758;6.106;2023-05-18T03:21:56;5.30;;;2.38;;
73150;SDS011;61354;50.758;6.106;2023-05-18T03:24:22;6.60;;;2.60;;
73150;SDS011;61354;50.758;6.106;2023-05-18T03:26:50;8.55;;;2.70;;
73150;SDS011;61354;50.758;6.106;2023-05-18T03:29:18;6.40;;;3.00;;
73150;SDS011;61354;50.758;6.106;2023-05-18T03:31:44;5.55;;;2.50;;
73150;SDS011;61354;50.758;6.106;2023-05-18T03:34:10;8.52;;;2.85;;
73150;SDS011;61354;50.758;6.106;2023-05-18T03:36:35;7.28;;;2.70;;
73150;SDS011;61354;50.758;6.106;2023-05-18T03:39:03;7.57;;;2.75;;
73150;SDS011;61354;50.758;6.106;2023-05-18T03:41:30;9.15;;;3.00;;
73150;SDS011;61354;50.758;6.106;2023-05-18T03:43:56;5.97;;;2.60;;
73150;SDS011;61354;50.758;6.106;2023-05-18T03:46:22;5.35;;;2.80;;
73150;SDS011;61354;50.758;6.106;2023-05-18T03:48:48;6.43;;;2.90;;
73150;SDS011;61354;50.758;6.106;2023-05-18T03:51:13;7.68;;;2.75;;
73150;SDS011;61354;50.758;6.106;2023-05-18T03:53:39;6.43;;;2.83;;
73150;SDS011;61354;50.758;6.106;2023-05-18T03:56:06;7.68;;;3.17;;
73150;SDS011;61354;50.758;6.106;2023-05-18T03:58:32;5.68;;;2.72;;
73150;SDS011;61354;50.758;6.106;2023-05-18T04:00:59;6.45;;;2.90;;
73150;SDS011;61354;50.758;6.106;2023-05-18T04:03:25;5.88;;;2.50;;
73150;SDS011;61354;50.758;6.106;2023-05-18T04:05:51;5.32;;;2.30;;
73150;SDS011;61354;50.758;6.106;2023-05-18T04:08:17;5.00;;;2.75;;
73150;SDS011;61354;50.758;6.106;2023-05-18T04:10:44;6.13;;;2.72;;
73150;SDS011;61354;50.758;6.106;2023-05-18T04:13:10;6.07;;;2.60;;
73150;SDS011;61354;50.758;6.106;2023-05-18T04:15:36;4.82;;;2.70;;
73150;SDS011;61354;50.758;6.106;2023-05-18T04:18:02;6.38;;;2.97;;
73150;SDS011;61354;50.758;6.106;2023-05-18T04:20:28;6.47;;;3.00;;
73150;SDS011;61354;50.758;6.106;2023-05-18T04:22:54;8.68;;;2.63;;
73150;SDS011;61354;50.758;6.106;2023-05-18T04:25:21;6.97;;;2.67;;
73150;SDS011;61354;50.758;6.106;2023-05-18T04:27:52;5.85;;;2.95;;
73150;SDS011;61354;50.758;6.106;2023-05-18T04:30:19;7.50;;;2.78;;
73150;SDS011;61354;50.758;6.106;2023-05-18T04:32:46;6.00;;;2.67;;
73150;SDS011;61354;50.758;6.106;2023-05-18T04:35:12;6.28;;;3.00;;
73150;SDS011;61354;50.758;6.106;2023-05-18T04:37:38;6.70;;;2.80;;
73150;SDS011;61354;50.758;6.106;2023-05-18T04:40:07;7.65;;;2.88;;
73150;SDS011;61354;50.758;6.106;2023-05-18T04:42:37;5.82;;;2.90;;
73150;SDS011;61354;50.758;6.106;2023-05-18T04:45:10;6.47;;;2.80;;
73150;SDS011;61354;50.758;6.106;2023-05-18T04:47:37;7.15;;;2.72;;
73150;SDS011;61354;50.758;6.106;2023-05-18T04:50:02;5.75;;;2.30;;
73150;SDS011;61354;50.758;6.106;2023-05-18T04:52:30;7.45;;;3.10;;
73150;SDS011;61354;50.758;6.106;2023-05-18T04:54:55;7.80;;;3.33;;
73150;SDS011;61354;50.758;6.106;2023-05-18T04:57:21;7.28;;;3.40;;
73150;SDS011;61354;50.758;6.106;2023-05-18T04:59:46;6.78;;;3.20;;
73150;SDS011;61354;50.758;6.106;2023-05-18T05:02:12;7.18;;;2.97;;
73150;SDS011;61354;50.758;6.106;2023-05-18T05:04:38;7.57;;;3.20;;
73150;SDS011;61354;50.758;6.106;2023-05-18T05:07:06;7.90;;;3.45;;
73150;SDS011;61354;50.758;6.106;2023-05-18T05:09:31;8.43;;;2.95;;
73150;SDS011;61354;50.758;6.106;2023-05-18T05:11:57;7.93;;;2.60;;
73150;SDS011;61354;50.758;6.106;2023-05-18T05:14:22;7.15;;;3.20;;
73150;SDS011;61354;50.758;6.106;2023-05-18T05:16:48;5.95;;;3.05;;
73150;SDS011;61354;50.758;6.106;2023-05-18T05:19:13;5.05;;;2.85;;
73150;SDS011;61354;50.758;6.106;2023-05-18T05:21:39;6.72;;;3.50;;
73150;SDS011;61354;50.758;6.106;2023-05-18T05:24:05;7.93;;;3.47;;
73150;SDS011;61354;50.758;6.106;2023-05-18T05:26:32;6.40;;;3.38;;
73150;SDS011;61354;50.758;6.106;2023-05-18T05:28:58;8.77;;;3.30;;
73150;SDS011;61354;50.758;6.106;2023-05-18T05:31:23;7.03;;;3.08;;
73150;SDS011;61354;50.758;6.106;2023-05-18T05:33:49;6.90;;;3.25;;
73150;SDS011;61354;50.758;6.106;2023-05-18T05:36:15;6.78;;;3.35;;
73150;SDS011;61354;50.758;6.106;2023-05-18T05:38:40;11.00;;;3.40;;
73150;SDS011;61354;50.758;6.106;2023-05-18T05:41:06;8.20;;;3.08;;
73150;SDS011;61354;50.758;6.106;2023-05-18T05:43:32;7.07;;;3.15;;
73150;SDS011;61354;50.758;6.106;2023-05-18T05:45:57;5.95;;;3.17;;
73150;SDS011;61354;50.758;6.106;2023-05-18T05:48:23;6.65;;;3.20;;
73150;SDS011;61354;50.758;6.106;2023-05-18T05:50:48;6.35;;;3.33;;
73150;SDS011;61354;50.758;6.106;2023-05-18T05:53:14;7.00;;;3.20;;
73150;SDS011;61354;50.758;6.106;2023-05-18T05:55:42;6.80;;;3.50;;
73150;SDS011;61354;50.758;6.106;2023-05-18T05:58:07;7.72;;;3.40;;
73150;SDS011;61354;50.758;6.106;2023-05-18T06:00:33;6.95;;;3.15;;
73150;SDS011;61354;50.758;6.106;2023-05-18T06:02:59;7.70;;;3.05;;
73150;SDS011;61354;50.758;6.106;2023-05-18T06:05:25;6.90;;;3.08;;
73150;SDS011;61354;50.758;6.106;2023-05-18T06:07:50;8.30;;;3.25;;
73150;SDS011;61354;50.758;6.106;2023-05-18T06:10:16;8.38;;;3.22;;
73150;SDS011;61354;50.758;6.106;2023-05-18T06:12:42;7.03;;;2.97;;
73150;SDS011;61354;50.758;6.106;2023-05-18T06:15:08;6.63;;;2.97;;
73150;SDS011;61354;50.758;6.106;2023-05-18T06:17:33;9.18;;;3.08;;
73150;SDS011;61354;50.758;6.106;2023-05-18T06:19:59;10.68;;;3.63;;
73150;SDS011;61354;50.758;6.106;2023-05-18T06:22:25;9.55;;;4.03;;
73150;SDS011;61354;50.758;6.106;2023-05-18T06:24:50;7.78;;;3.90;;
73150;SDS011;61354;50.758;6.106;2023-05-18T06:27:17;7.22;;;3.50;;
73150;SDS011;61354;50.758;6.106;2023-05-18T06:29:43;7.78;;;3.67;;
73150;SDS011;61354;50.758;6.106;2023-05-18T06:32:11;8.80;;;4.07;;
73150;SDS011;61354;50.758;6.106;2023-05-18T06:34:37;7.18;;;3.80;;
73150;SDS011;61354;50.758;6.106;2023-05-18T06:37:03;6.72;;;3.75;;
73150;SDS011;61354;50.758;6.106;2023-05-18T06:39:29;10.80;;;3.85;;
73150;SDS011;61354;50.758;6.106;2023-05-18T06:41:55;6.85;;;3.20;;
73150;SDS011;61354;50.758;6.106;2023-05-18T06:44:20;8.88;;;3.22;;
73150;SDS011;61354;50.758;6.106;2023-05-18T06:46:46;9.38;;;3.35;;
73150;SDS011;61354;50.758;6.106;2023-05-18T06:49:13;8.63;;;3.30;;
73150;SDS011;61354;50.758;6.106;2023-05-18T06:51:38;7.65;;;3.33;;
73150;SDS011;61354;50.758;6.106;2023-05-18T06:54:04;7.35;;;3.40;;
73150;SDS011;61354;50.758;6.106;2023-05-18T06:56:30;6.78;;;3.08;;
73150;SDS011;61354;50.758;6.106;2023-05-18T06:58:55;6.13;;;3.53;;
73150;SDS011;61354;50.758;6.106;2023-05-18T07:01:21;8.63;;;3.60;;
73150;SDS011;61354;50.758;6.106;2023-05-18T07:03:47;7.63;;;3.13;;
73150;SDS011;61354;50.758;6.106;2023-05-18T07:06:13;8.05;;;3.88;;
73150;SDS011;61354;50.758;6.106;2023-05-18T07:08:39;7.32;;;3.13;;
73150;SDS011;61354;50.758;6.106;2023-05-18T07:11:05;8.00;;;3.55;;
73150;SDS011;61354;50.758;6.106;2023-05-18T07:13:31;5.88;;;3.22;;
73150;SDS011;61354;50.758;6.106;2023-05-18T07:15:57;7.95;;;3.45;;
73150;SDS011;61354;50.758;6.106;2023-05-18T07:18:22;7.28;;;2.90;;
73150;SDS011;61354;50.758;6.106;2023-05-18T07:20:48;7.68;;;3.25;;
73150;SDS011;61354;50.758;6.106;2023-05-18T07:23:14;7.70;;;3.20;;
73150;SDS011;61354;50.758;6.106;2023-05-18T07:25:39;7.13;;;3.40;;
73150;SDS011;61354;50.758;6.106;2023-05-18T07:28:05;5.63;;;2.90;;
73150;SDS011;61354;50.758;6.106;2023-05-18T07:30:30;8.68;;;3.40;;
73150;SDS011;61354;50.758;6.106;2023-05-18T07:32:56;6.35;;;2.88;;
73150;SDS011;61354;50.758;6.106;2023-05-18T07:35:22;6.75;;;3.25;;
73150;SDS011;61354;50.758;6.106;2023-05-18T07:37:48;7.63;;;3.13;;
73150;SDS011;61354;50.758;6.106;2023-05-18T07:40:16;7.85;;;2.75;;
73150;SDS011;61354;50.758;6.106;2023-05-18T07:42:42;6.88;;;3.05;;
73150;SDS011;61354;50.758;6.106;2023-05-18T07:45:08;7.50;;;2.67;;
73150;SDS011;61354;50.758;6.106;2023-05-18T07:47:34;6.07;;;2.60;;
73150;SDS011;61354;50.758;6.106;2023-05-18T07:49:59;5.93;;;2.67;;
73150;SDS011;61354;50.758;6.106;2023-05-18T07:52:25;5.60;;;2.30;;
73150;SDS011;61354;50.758;6.106;2023-05-18T07:54:54;6.57;;;2.22;;
73150;SDS011;61354;50.758;6.106;2023-05-18T07:57:21;5.13;;;2.50;;
73150;SDS011;61354;50.758;6.106;2023-05-18T07:59:46;7.10;;;2.40;;
73150;SDS011;61354;50.758;6.106;2023-05-18T08:02:12;7.82;;;2.88;;
73150;SDS011;61354;50.758;6.106;2023-05-18T08:04:37;7.13;;;2.58;;
73150;SDS011;61354;50.758;6.106;2023-05-18T08:07:03;6.10;;;2.97;;
73150;SDS011;61354;50.758;6.106;2023-05-18T08:09:29;6.57;;;2.22;;
73150;SDS011;61354;50.758;6.106;2023-05-18T08:11:55;6.35;;;2.63;;
73150;SDS011;61354;50.758;6.106;2023-05-18T08:14:22;7.13;;;2.40;;
73150;SDS011;61354;50.758;6.106;2023-05-18T08:16:47;6.68;;;2.95;;
73150;SDS011;61354;50.758;6.106;2023-05-18T08:19:13;5.32;;;2.72;;
73150;SDS011;61354;50.758;6.106;2023-05-18T08:21:39;5.88;;;2.35;;
73150;SDS011;61354;50.758;6.106;2023-05-18T08:24:05;5.47;;;2.20;;
73150;SDS011;61354;50.758;6.106;2023-05-18T08:26:31;7.45;;;3.47;;
73150;SDS011;61354;50.758;6.106;2023-05-18T08:28:57;8.48;;;3.10;;
73150;SDS011;61354;50.758;6.106;2023-05-18T08:31:22;7.65;;;3.35;;
73150;SDS011;61354;50.758;6.106;2023-05-18T08:33:48;6.45;;;2.95;;
73150;SDS011;61354;50.758;6.106;2023-05-18T08:36:14;7.43;;;2.67;;
73150;SDS011;61354;50.758;6.106;2023-05-18T08:38:41;7.85;;;2.78;;
73150;SDS011;61354;50.758;6.106;2023-05-18T08:41:22;7.85;;;2.90;;
73150;SDS011;61354;50.758;6.106;2023-05-18T08:43:56;8.85;;;2.80;;
73150;SDS011;61354;50.758;6.106;2023-05-18T08:46:27;7.40;;;2.53;;
73150;SDS011;61354;50.758;6.106;2023-05-18T08:48:57;8.77;;;3.08;;
73150;SDS011;61354;50.758;6.106;2023-05-18T08:51:24;6.85;;;2.90;;
73150;SDS011;61354;50.758;6.106;2023-05-18T08:53:53;9.73;;;3.25;;
73150;SDS011;61354;50.758;6.106;2023-05-18T08:56:23;6.95;;;2.25;;
73150;SDS011;61354;50.758;6.106;2023-05-18T08:58:51;7.40;;;3.10;;
73150;SDS011;61354;50.758;6.106;2023-05-18T09:01:19;8.63;;;2.90;;
73150;SDS011;61354;50.758;6.106;2023-05-18T09:03:47;6.47;;;2.65;;
73150;SDS011;61354;50.758;6.106;2023-05-18T09:06:14;7.22;;;3.00;;
73150;SDS011;61354;50.758;6.106;2023-05-18T09:08:40;5.45;;;2.65;;
73150;SDS011;61354;50.758;6.106;2023-05-18T09:11:06;7.15;;;2.50;;
73150;SDS011;61354;50.758;6.106;2023-05-18T09:13:33;6.70;;;3.05;;
73150;SDS011;61354;50.758;6.106;2023-05-18T09:15:59;7.70;;;3.63;;
73150;SDS011;61354;50.758;6.106;2023-05-18T09:18:24;6.15;;;2.90;;
73150;SDS011;61354;50.758;6.106;2023-05-18T09:20:50;8.13;;;3.00;;
73150;SDS011;61354;50.758;6.106;2023-05-18T09:23:16;8.35;;;3.28;;
73150;SDS011;61354;50.758;6.106;2023-05-18T09:25:43;6.45;;;3.00;;
73150;SDS011;61354;50.758;6.106;2023-05-18T09:28:11;7.93;;;3.72;;
73150;SDS011;61354;50.758;6.106;2023-05-18T09:30:39;6.70;;;2.85;;
73150;SDS011;61354;50.758;6.106;2023-05-18T09:33:15;7.43;;;2.80;;
73150;SDS011;61354;50.758;6.106;2023-05-18T09:35:43;6.75;;;2.78;;
73150;SDS011;61354;50.758;6.106;2023-05-18T09:38:10;8.57;;;3.10;;
73150;SDS011;61354;50.758;6.106;2023-05-18T09:40:38;7.80;;;3.05;;
73150;SDS011;61354;50.758;6.106;2023-05-18T09:43:08;5.72;;;3.20;;
73150;SDS011;61354;50.758;6.106;2023-05-18T09:45:33;6.75;;;3.15;;
73150;SDS011;61354;50.758;6.106;2023-05-18T09:48:06;5.53;;;3.35;;
73150;SDS011;61354;50.758;6.106;2023-05-18T09:50:33;6.57;;;3.17;;
73150;SDS011;61354;50.758;6.106;2023-05-18T09:55:27;8.90;;;3.55;;
73150;SDS011;61354;50.758;6.106;2023-05-18T09:57:53;10.35;;;3.85;;
73150;SDS011;61354;50.758;6.106;2023-05-18T10:00:20;7.82;;;4.15;;
73150;SDS011;61354;50.758;6.106;2023-05-18T10:02:47;7.82;;;3.60;;
73150;SDS011;61354;50.758;6.106;2023-05-18T10:07:49;7.35;;;3.22;;
73150;SDS011;61354;50.758;6.106;2023-05-18T10:10:22;7.68;;;4.05;;
73150;SDS011;61354;50.758;6.106;2023-05-18T10:12:50;6.72;;;3.33;;
73150;SDS011;61354;50.758;6.106;2023-05-18T10:15:17;6.95;;;3.47;;
73150;SDS011;61354;50.758;6.106;2023-05-18T10:17:45;7.90;;;3.15;;
73150;SDS011;61354;50.758;6.106;2023-05-18T10:20:13;6.45;;;3.10;;
73150;SDS011;61354;50.758;6.106;2023-05-18T10:22:41;6.93;;;3.33;;
73150;SDS011;61354;50.758;6.106;2023-05-18T10:25:10;8.30;;;3.17;;
73150;SDS011;61354;50.758;6.106;2023-05-18T10:27:40;9.10;;;3.50;;
73150;SDS011;61354;50.758;6.106;2023-05-18T10:30:07;7.57;;;3.75;;
73150;SDS011;61354;50.758;6.106;2023-05-18T10:32:34;7.75;;;3.58;;
73150;SDS011;61354;50.758;6.106;2023-05-18T10:35:02;8.95;;;3.55;;
73150;SDS011;61354;50.758;6.106;2023-05-18T10:37:29;8.00;;;3.80;;
73150;SDS011;61354;50.758;6.106;2023-05-18T10:42:24;6.68;;;3.38;;
73150;SDS011;61354;50.758;6.106;2023-05-18T10:44:53;9.32;;;3.50;;
73150;SDS011;61354;50.758;6.106;2023-05-18T10:47:26;8.02;;;3.83;;
73150;SDS011;61354;50.758;6.106;2023-05-18T10:49:52;5.25;;;3.47;;
73150;SDS011;61354;50.758;6.106;2023-05-18T10:52:18;5.45;;;3.05;;
73150;SDS011;61354;50.758;6.106;2023-05-18T10:54:45;5.85;;;3.30;;
73150;SDS011;61354;50.758;6.106;2023-05-18T10:57:12;7.10;;;3.53;;
73150;SDS011;61354;50.758;6.106;2023-05-18T10:59:41;7.03;;;3.70;;
73150;SDS011;61354;50.758;6.106;2023-05-18T11:02:09;7.35;;;3.80;;
73150;SDS011;61354;50.758;6.106;2023-05-18T11:04:38;6.60;;;3.58;;
73150;SDS011;61354;50.758;6.106;2023-05-18T11:07:08;6.82;;;3.58;;
73150;SDS011;61354;50.758;6.106;2023-05-18T11:09:41;8.60;;;3.80;;
73150;SDS011;61354;50.758;6.106;2023-05-18T11:12:14;6.13;;;3.85;;
73150;SDS011;61354;50.758;6.106;2023-05-18T11:17:24;6.97;;;3.72;;
73150;SDS011;61354;50.758;6.106;2023-05-18T11:27:58;7.20;;;3.28;;
73150;SDS011;61354;50.758;6.106;2023-05-18T11:33:10;6.03;;;3.10;;
73150;SDS011;61354;50.758;6.106;2023-05-18T11:46:50;7.57;;;3.90;;
73150;SDS011;61354;50.758;6.106;2023-05-18T11:49:18;6.60;;;3.50;;
73150;SDS011;61354;50.758;6.106;2023-05-18T11:51:56;5.93;;;3.35;;
73150;SDS011;61354;50.758;6.106;2023-05-18T11:54:24;8.77;;;2.95;;
73150;SDS011;61354;50.758;6.106;2023-05-18T11:56:53;6.15;;;3.75;;
73150;SDS011;61354;50.758;6.106;2023-05-18T12:00:20;6.10;;;3.42;;
73150;SDS011;61354;50.758;6.106;2023-05-18T12:02:25;8.40;;;3.55;;
73150;SDS011;61354;50.758;6.106;2023-05-18T12:04:56;6.25;;;3.38;;
73150;SDS011;61354;50.758;6.106;2023-05-18T12:07:27;8.23;;;3.40;;
73150;SDS011;61354;50.758;6.106;2023-05-18T12:09:57;5.90;;;3.00;;
73150;SDS011;61354;50.758;6.106;2023-05-18T12:12:24;5.15;;;2.45;;
73150;SDS011;61354;50.758;6.106;2023-05-18T12:14:52;8.07;;;2.72;;
73150;SDS011;61354;50.758;6.106;2023-05-18T12:17:19;7.28;;;2.75;;
73150;SDS011;61354;50.758;6.106;2023-05-18T12:19:46;8.02;;;3.58;;
73150;SDS011;61354;50.758;6.106;2023-05-18T12:22:13;10.65;;;3.63;;
73150;SDS011;61354;50.758;6.106;2023-05-18T12:24:39;6.32;;;3.20;;
73150;SDS011;61354;50.758;6.106;2023-05-18T12:27:07;6.22;;;3.53;;
73150;SDS011;61354;50.758;6.106;2023-05-18T12:29:36;6.65;;;3.30;;
73150;SDS011;61354;50.758;6.106;2023-05-18T12:32:06;5.75;;;2.95;;
73150;SDS011;61354;50.758;6.106;2023-05-18T12:34:34;8.23;;;3.35;;
73150;SDS011;61354;50.758;6.106;2023-05-18T12:37:01;6.65;;;3.08;;
73150;SDS011;61354;50.758;6.106;2023-05-18T12:39:27;5.55;;;2.90;;
73150;SDS011;61354;50.758;6.106;2023-05-18T12:41:52;5.80;;;2.90;;
73150;SDS011;61354;50.758;6.106;2023-05-18T12:44:18;11.18;;;4.28;;
73150;SDS011;61354;50.758;6.106;2023-05-18T12:46:45;6.93;;;3.42;;
73150;SDS011;61354;50.758;6.106;2023-05-18T12:49:11;8.48;;;3.20;;
73150;SDS011;61354;50.758;6.106;2023-05-18T12:51:37;7.60;;;2.72;;
73150;SDS011;61354;50.758;6.106;2023-05-18T12:54:04;5.93;;;3.13;;
73150;SDS011;61354;50.758;6.106;2023-05-18T12:59:18;7.38;;;3.42;;
73150;SDS011;61354;50.758;6.106;2023-05-18T13:01:44;8.93;;;3.38;;
73150;SDS011;61354;50.758;6.106;2023-05-18T13:04:10;9.10;;;3.63;;
73150;SDS011;61354;50.758;6.106;2023-05-18T13:06:37;11.90;;;4.35;;
73150;SDS011;61354;50.758;6.106;2023-05-18T13:09:06;7.28;;;3.38;;
73150;SDS011;61354;50.758;6.106;2023-05-18T13:11:38;8.98;;;3.53;;
73150;SDS011;61354;50.758;6.106;2023-05-18T13:14:04;7.18;;;3.30;;
73150;SDS011;61354;50.758;6.106;2023-05-18T13:16:32;6.38;;;3.53;;
73150;SDS011;61354;50.758;6.106;2023-05-18T13:18:59;6.97;;;3.53;;
73150;SDS011;61354;50.758;6.106;2023-05-18T13:23:52;8.18;;;4.10;;
73150;SDS011;61354;50.758;6.106;2023-05-18T13:26:19;8.43;;;3.65;;
73150;SDS011;61354;50.758;6.106;2023-05-18T13:28:50;6.97;;;3.45;;
73150;SDS011;61354;50.758;6.106;2023-05-18T13:31:17;7.82;;;3.40;;
73150;SDS011;61354;50.758;6.106;2023-05-18T13:33:43;7.53;;;3.92;;
73150;SDS011;61354;50.758;6.106;2023-05-18T13:36:09;9.23;;;3.92;;
73150;SDS011;61354;50.758;6.106;2023-05-18T13:38:35;8.90;;;3.78;;
73150;SDS011;61354;50.758;6.106;2023-05-18T13:41:04;10.07;;;3.50;;
73150;SDS011;61354;50.758;6.106;2023-05-18T13:43:33;8.23;;;3.58;;
73150;SDS011;61354;50.758;6.106;2023-05-18T13:45:59;9.00;;;3.47;;
73150;SDS011;61354;50.758;6.106;2023-05-18T13:48:25;7.45;;;4.07;;
73150;SDS011;61354;50.758;6.106;2023-05-18T13:50:53;8.20;;;3.60;;
73150;SDS011;61354;50.758;6.106;2023-05-18T13:53:19;7.57;;;3.47;;
73150;SDS011;61354;50.758;6.106;2023-05-18T13:55:44;7.50;;;3.40;;
73150;SDS011;61354;50.758;6.106;2023-05-18T13:58:10;10.23;;;3.80;;
73150;SDS011;61354;50.758;6.106;2023-05-18T14:00:36;9.20;;;3.38;;
73150;SDS011;61354;50.758;6.106;2023-05-18T14:03:02;7.03;;;3.40;;
73150;SDS011;61354;50.758;6.106;2023-05-18T14:05:28;7.35;;;3.40;;
73150;SDS011;61354;50.758;6.106;2023-05-18T14:07:53;6.72;;;3.63;;
73150;SDS011;61354;50.758;6.106;2023-05-18T14:10:20;7.03;;;3.22;;
73150;SDS011;61354;50.758;6.106;2023-05-18T14:12:46;7.03;;;3.50;;
73150;SDS011;61354;50.758;6.106;2023-05-18T14:15:12;8.32;;;4.25;;
73150;SDS011;61354;50.758;6.106;2023-05-18T14:17:39;8.40;;;3.25;;
73150;SDS011;61354;50.758;6.106;2023-05-18T14:20:05;8.80;;;3.55;;
73150;SDS011;61354;50.758;6.106;2023-05-18T14:22:31;7.00;;;3.20;;
73150;SDS011;61354;50.758;6.106;2023-05-18T14:24:57;8.23;;;3.55;;
73150;SDS011;61354;50.758;6.106;2023-05-18T14:27:23;6.55;;;3.30;;
73150;SDS011;61354;50.758;6.106;2023-05-18T14:29:49;8.65;;;3.58;;
73150;SDS011;61354;50.758;6.106;2023-05-18T14:32:15;6.80;;;3.53;;
73150;SDS011;61354;50.758;6.106;2023-05-18T14:34:41;7.13;;;3.67;;
73150;SDS011;61354;50.758;6.106;2023-05-18T14:37:07;8.05;;;3.60;;
73150;SDS011;61354;50.758;6.106;2023-05-18T14:39:33;4.68;;;2.92;;
73150;SDS011;61354;50.758;6.106;2023-05-18T14:41:58;8.43;;;3.53;;
73150;SDS011;61354;50.758;6.106;2023-05-18T14:44:24;8.57;;;3.63;;
73150;SDS011;61354;50.758;6.106;2023-05-18T14:46:50;5.95;;;3.60;;
73150;SDS011;61354;50.758;6.106;2023-05-18T14:49:16;7.68;;;3.40;;
73150;SDS011;61354;50.758;6.106;2023-05-18T14:51:42;8.93;;;3.45;;
73150;SDS011;61354;50.758;6.106;2023-05-18T14:54:07;7.45;;;3.25;;
73150;SDS011;61354;50.758;6.106;2023-05-18T14:56:33;7.85;;;3.92;;
73150;SDS011;61354;50.758;6.106;2023-05-18T14:58:58;7.35;;;2.83;;
73150;SDS011;61354;50.758;6.106;2023-05-18T15:01:24;9.57;;;3.78;;
73150;SDS011;61354;50.758;6.106;2023-05-18T15:03:50;6.15;;;3.20;;
73150;SDS011;61354;50.758;6.106;2023-05-18T15:06:15;6.60;;;3.28;;
73150;SDS011;61354;50.758;6.106;2023-05-18T15:08:41;9.40;;;3.40;;
73150;SDS011;61354;50.758;6.106;2023-05-18T15:11:06;10.05;;;3.70;;
73150;SDS011;61354;50.758;6.106;2023-05-18T15:13:32;7.18;;;3.10;;
73150;SDS011;61354;50.758;6.106;2023-05-18T15:15:58;9.13;;;3.58;;
73150;SDS011;61354;50.758;6.106;2023-05-18T15:18:23;8.32;;;3.50;;
73150;SDS011;61354;50.758;6.106;2023-05-18T15:20:49;5.55;;;2.85;;
73150;SDS011;61354;50.758;6.106;2023-05-18T15:23:14;7.75;;;3.50;;
73150;SDS011;61354;50.758;6.106;2023-05-18T15:25:40;7.80;;;2.97;;
73150;SDS011;61354;50.758;6.106;2023-05-18T15:28:06;9.38;;;3.20;;
73150;SDS011;61354;50.758;6.106;2023-05-18T15:30:33;5.28;;;3.08;;
73150;SDS011;61354;50.758;6.106;2023-05-18T15:32:58;8.20;;;3.42;;
73150;SDS011;61354;50.758;6.106;2023-05-18T15:35:26;8.75;;;3.70;;
73150;SDS011;61354;50.758;6.106;2023-05-18T15:37:53;6.78;;;3.38;;
73150;SDS011;61354;50.758;6.106;2023-05-18T15:40:18;7.97;;;3.50;;